sensor_id;sensor_type;location;lat;lon;timestamp;pressure;altitude;pressure_sealevel;temperature;humidity
32081;BME280;18593;51.426;7.030;2023-05-11T00:01:15;100342.81;;;14.86;72.14
32081;BME280;18593;51.426;7.030;2023-05-11T00:03:42;100346.53;;;14.85;72.09
32081;BME280;18593;51.426;7.030;2023-05-11T00:06:10;100349.22;;;14.85;72.21
32081;BME280;18593;51.426;7.030;2023-05-11T00:08:38;100354.59;;;14.85;72.25
32081;BME280;18593;51.426;7.030;2023-05-11T00:11:07;100355.66;;;14.84;72.51
32081;BME280;18593;51.426;7.030;2023-05-11T00:13:34;100348.66;;;14.83;72.37
32081;BME280;18593;51.426;7.030;2023-05-11T00:16:01;100347.63;;;14.84;72.74
32081;BME280;18593;51.426;7.030;2023-05-11T00:18:29;100351.31;;;14.83;72.78
32081;BME280;18593;51.426;7.030;2023-05-11T00:20:56;100354.00;;;14.83;72.99
32081;BME280;18593;51.426;7.030;2023-05-11T00:23:23;100348.66;;;14.83;73.00
32081;BME280;18593;51.426;7.030;2023-05-11T00:25:52;100353.44;;;14.81;73.22
32081;BME280;18593;51.426;7.030;2023-05-11T00:28:19;100346.47;;;14.80;73.22
32081;BME280;18593;51.426;7.030;2023-05-11T00:30:48;100354.25;;;14.82;73.36
32081;BME280;18593;51.426;7.030;2023-05-11T00:33:16;100351.84;;;14.80;73.52
32081;BME280;18593;51.426;7.030;2023-05-11T00:35:43;100344.59;;;14.81;73.42
32081;BME280;18593;51.426;7.030;2023-05-11T00:38:11;100345.66;;;14.80;73.71
32081;BME280;18593;51.426;7.030;2023-05-11T00:40:38;100345.66;;;14.80;73.85
32081;BME280;18593;51.426;7.030;2023-05-11T00:43:07;100344.03;;;14.79;74.05
32081;BME280;18593;51.426;7.030;2023-05-11T00:45:35;100336.19;;;14.77;74.00
32081;BME280;18593;51.426;7.030;2023-05-11T00:48:03;100342.38;;;14.78;74.04
32081;BME280;18593;51.426;7.030;2023-05-11T00:50:30;100340.75;;;14.77;74.17
32081;BME280;18593;51.426;7.030;2023-05-11T00:52:58;100339.94;;;14.76;74.23
32081;BME280;18593;51.426;7.030;2023-05-11T00:55:25;100343.69;;;14.75;74.18
32081;BME280;18593;51.426;7.030;2023-05-11T00:57:53;100345.78;;;14.73;74.33
32081;BME280;18593;51.426;7.030;2023-05-11T01:00:23;100339.59;;;14.73;74.54
32081;BME280;18593;51.426;7.030;2023-05-11T01:02:50;100338.78;;;14.72;74.54
32081;BME280;18593;51.426;7.030;2023-05-11T01:05:18;100337.97;;;14.72;74.49
32081;BME280;18593;51.426;7.030;2023-05-11T01:07:52;100340.91;;;14.70;74.41
32081;BME280;18593;51.426;7.030;2023-05-11T01:10:31;100330.19;;;14.70;74.52
32081;BME280;18593;51.426;7.030;2023-05-11T01:13:09;100335.75;;;14.68;74.63
32081;BME280;18593;51.426;7.030;2023-05-11T01:15:47;100343.00;;;14.68;74.52
32081;BME280;18593;51.426;7.030;2023-05-11T01:18:24;100341.38;;;14.67;74.50
32081;BME280;18593;51.426;7.030;2023-05-11T01:20:55;100349.44;;;14.67;74.40
32081;BME280;18593;51.426;7.030;2023-05-11T01:24:05;100348.38;;;14.68;74.57
32081;BME280;18593;51.426;7.030;2023-05-11T01:26:58;100343.25;;;14.66;74.37
32081;BME280;18593;51.426;7.030;2023-05-11T01:29:45;100341.97;;;14.69;74.54
32081;BME280;18593;51.426;7.030;2023-05-11T01:32:19;100339.28;;;14.69;74.59
32081;BME280;18593;51.426;7.030;2023-05-11T01:34:54;100343.59;;;14.70;74.36
32081;BME280;18593;51.426;7.030;2023-05-11T01:37:25;100344.66;;;14.69;74.36
32081;BME280;18593;51.426;7.030;2023-05-11T01:39:58;100344.66;;;14.69;74.37
32081;BME280;18593;51.426;7.030;2023-05-11T01:42:34;100348.38;;;14.68;74.38
32081;BME280;18593;51.426;7.030;2023-05-11T01:45:04;100345.69;;;14.68;74.42
32081;BME280;18593;51.426;7.030;2023-05-11T01:47:35;100344.88;;;14.67;74.36
32081;BME280;18593;51.426;7.030;2023-05-11T01:50:05;100339.75;;;14.66;74.55
32081;BME280;18593;51.426;7.030;2023-05-11T01:52:35;100344.06;;;14.67;74.53
32081;BME280;18593;51.426;7.030;2023-05-11T01:55:06;100353.75;;;14.68;74.44
32081;BME280;18593;51.426;7.030;2023-05-11T01:57:36;100359.13;;;14.68;74.47
32081;BME280;18593;51.426;7.030;2023-05-11T02:00:06;100358.31;;;14.67;74.33
32081;BME280;18593;51.426;7.030;2023-05-11T02:02:42;100367.16;;;14.68;74.71
32081;BME280;18593;51.426;7.030;2023-05-11T02:05:16;100365.28;;;14.68;74.55
32081;BME280;18593;51.426;7.030;2023-05-11T02:07:45;100370.91;;;14.67;74.62
32081;BME280;18593;51.426;7.030;2023-05-11T02:10:16;100365.78;;;14.65;74.73
32081;BME280;18593;51.426;7.030;2023-05-11T02:12:44;100373.03;;;14.65;74.78
32081;BME280;18593;51.426;7.030;2023-05-11T02:15:13;100374.06;;;14.64;75.02
32081;BME280;18593;51.426;7.030;2023-05-11T02:17:44;100366.00;;;14.64;75.17
32081;BME280;18593;51.426;7.030;2023-05-11T02:20:13;100373.03;;;14.65;75.04
32081;BME280;18593;51.426;7.030;2023-05-11T02:22:43;100367.66;;;14.65;75.07
32081;BME280;18593;51.426;7.030;2023-05-11T02:25:12;100369.53;;;14.64;74.95
32081;BME280;18593;51.426;7.030;2023-05-11T02:27:40;100368.69;;;14.64;75.31
32081;BME280;18593;51.426;7.030;2023-05-11T02:30:08;100373.03;;;14.65;75.47
32081;BME280;18593;51.426;7.030;2023-05-11T02:32:41;100365.19;;;14.63;75.38
32081;BME280;18593;51.426;7.030;2023-05-11T02:35:17;100369.75;;;14.63;75.47
32081;BME280;18593;51.426;7.030;2023-05-11T02:37:47;100363.59;;;14.62;75.47
32081;BME280;18593;51.426;7.030;2023-05-11T02:40:19;100370.81;;;14.62;75.59
32081;BME280;18593;51.426;7.030;2023-05-11T02:42:55;100375.13;;;14.63;75.56
32081;BME280;18593;51.426;7.030;2023-05-11T02:45:26;100369.44;;;14.59;75.72
32081;BME280;18593;51.426;7.030;2023-05-11T02:47:56;100372.13;;;14.59;75.82
32081;BME280;18593;51.426;7.030;2023-05-11T02:50:28;100367.78;;;14.58;75.48
32081;BME280;18593;51.426;7.030;2023-05-11T02:52:58;100374.22;;;14.57;75.68
32081;BME280;18593;51.426;7.030;2023-05-11T02:55:28;100365.59;;;14.55;75.69
32081;BME280;18593;51.426;7.030;2023-05-11T02:57:56;100356.75;;;14.55;75.77
32081;BME280;18593;51.426;7.030;2023-05-11T03:00:25;100358.63;;;14.54;75.75
32081;BME280;18593;51.426;7.030;2023-05-11T03:02:52;100360.72;;;14.52;75.58
32081;BME280;18593;51.426;7.030;2023-05-11T03:05:21;100356.66;;;14.50;75.61
32081;BME280;18593;51.426;7.030;2023-05-11T03:07:50;100362.03;;;14.50;75.64
32081;BME280;18593;51.426;7.030;2023-05-11T03:10:18;100358.50;;;14.49;75.61
32081;BME280;18593;51.426;7.030;2023-05-11T03:12:46;100352.53;;;14.47;75.60
32081;BME280;18593;51.426;7.030;2023-05-11T03:15:14;100359.78;;;14.47;75.48
32081;BME280;18593;51.426;7.030;2023-05-11T03:17:45;100349.28;;;14.45;75.34
32081;BME280;18593;51.426;7.030;2023-05-11T03:20:16;100343.91;;;14.45;75.18
32081;BME280;18593;51.426;7.030;2023-05-11T03:22:43;100345.53;;;14.46;75.07
32081;BME280;18593;51.426;7.030;2023-05-11T03:25:14;100353.59;;;14.46;74.94
32081;BME280;18593;51.426;7.030;2023-05-11T03:27:43;100355.00;;;14.49;74.83
32081;BME280;18593;51.426;7.030;2023-05-11T03:30:13;100346.34;;;14.47;74.69
32081;BME280;18593;51.426;7.030;2023-05-11T03:32:44;100350.69;;;14.48;74.62
32081;BME280;18593;51.426;7.030;2023-05-11T03:35:11;100350.69;;;14.48;74.64
32081;BME280;18593;51.426;7.030;2023-05-11T03:37:39;100346.13;;;14.48;74.46
32081;BME280;18593;51.426;7.030;2023-05-11T03:40:08;100347.41;;;14.46;74.37
32081;BME280;18593;51.426;7.030;2023-05-11T03:42:47;100349.28;;;14.45;74.51
32081;BME280;18593;51.426;7.030;2023-05-11T03:45:18;100341.00;;;14.47;74.33
32081;BME280;18593;51.426;7.030;2023-05-11T03:47:48;100338.31;;;14.47;74.33
32081;BME280;18593;51.426;7.030;2023-05-11T03:50:16;100340.19;;;14.46;74.24
32081;BME280;18593;51.426;7.030;2023-05-11T03:52:45;100343.44;;;14.48;74.26
32081;BME280;18593;51.426;7.030;2023-05-11T03:55:13;100348.00;;;14.48;74.28
32081;BME280;18593;51.426;7.030;2023-05-11T03:57:41;100350.69;;;14.48;74.30
32081;BME280;18593;51.426;7.030;2023-05-11T04:00:11;100344.25;;;14.49;74.29
32081;BME280;18593;51.426;7.030;2023-05-11T04:02:43;100349.41;;;14.50;74.30
32081;BME280;18593;51.426;7.030;2023-05-11T04:05:12;100358.50;;;14.49;74.35
32081;BME280;18593;51.426;7.030;2023-05-11T04:07:42;100349.63;;;14.49;74.69
32081;BME280;18593;51.426;7.030;2023-05-11T04:10:10;100364.72;;;14.50;74.59
32081;BME280;18593;51.426;7.030;2023-05-11T04:12:37;100362.03;;;14.50;74.88
32081;BME280;18593;51.426;7.030;2023-05-11T04:15:06;100349.41;;;14.50;75.07
32081;BME280;18593;51.426;7.030;2023-05-11T04:17:34;100348.59;;;14.50;74.97
32081;BME280;18593;51.426;7.030;2023-05-11T04:20:02;100352.91;;;14.51;75.23
32081;BME280;18593;51.426;7.030;2023-05-11T04:22:29;100355.59;;;14.51;75.28
32081;BME280;18593;51.426;7.030;2023-05-11T04:24:57;100351.03;;;14.51;75.15
32081;BME280;18593;51.426;7.030;2023-05-11T04:27:24;100351.84;;;14.52;75.17
32081;BME280;18593;51.426;7.030;2023-05-11T04:29:51;100361.78;;;14.51;75.31
32081;BME280;18593;51.426;7.030;2023-05-11T04:32:18;100354.28;;;14.53;75.14
32081;BME280;18593;51.426;7.030;2023-05-11T04:34:47;100357.78;;;14.54;75.14
32081;BME280;18593;51.426;7.030;2023-05-11T04:37:18;100364.00;;;14.54;75.13
32081;BME280;18593;51.426;7.030;2023-05-11T04:39:46;100366.41;;;14.56;75.22
32081;BME280;18593;51.426;7.030;2023-05-11T04:42:13;100357.31;;;14.57;75.31
32081;BME280;18593;51.426;7.030;2023-05-11T04:44:42;100367.47;;;14.55;75.51
32081;BME280;18593;51.426;7.030;2023-05-11T04:47:09;100373.66;;;14.55;75.63
32081;BME280;18593;51.426;7.030;2023-05-11T04:49:36;100370.97;;;14.55;75.62
32081;BME280;18593;51.426;7.030;2023-05-11T04:52:06;100375.53;;;14.55;75.49
32081;BME280;18593;51.426;7.030;2023-05-11T04:54:34;100384.41;;;14.55;76.18
32081;BME280;18593;51.426;7.030;2023-05-11T04:57:01;100380.91;;;14.55;76.31
32081;BME280;18593;51.426;7.030;2023-05-11T04:59:29;100382.28;;;14.57;76.12
32081;BME280;18593;51.426;7.030;2023-05-11T05:01:57;100388.69;;;14.56;75.97
32081;BME280;18593;51.426;7.030;2023-05-11T05:04:25;100383.09;;;14.58;76.28
32081;BME280;18593;51.426;7.030;2023-05-11T05:06:52;100390.06;;;14.59;76.42
32081;BME280;18593;51.426;7.030;2023-05-11T05:09:21;100379.34;;;14.59;76.47
32081;BME280;18593;51.426;7.030;2023-05-11T05:11:49;100395.44;;;14.59;76.52
32081;BME280;18593;51.426;7.030;2023-05-11T05:14:16;100397.09;;;14.60;76.48
32081;BME280;18593;51.426;7.030;2023-05-11T05:16:43;100397.31;;;14.58;76.45
32081;BME280;18593;51.426;7.030;2023-05-11T05:19:11;100398.13;;;14.59;76.55
32081;BME280;18593;51.426;7.030;2023-05-11T05:21:38;100396.28;;;14.59;76.44
32081;BME280;18593;51.426;7.030;2023-05-11T05:24:06;100399.78;;;14.60;76.46
32081;BME280;18593;51.426;7.030;2023-05-11T05:26:37;100402.22;;;14.61;76.45
32081;BME280;18593;51.426;7.030;2023-05-11T05:29:04;100400.59;;;14.60;76.69
32081;BME280;18593;51.426;7.030;2023-05-11T05:31:32;100406.78;;;14.61;76.69
32081;BME280;18593;51.426;7.030;2023-05-11T05:34:01;100411.09;;;14.62;76.74
32081;BME280;18593;51.426;7.030;2023-05-11T05:36:28;100408.41;;;14.62;76.67
32081;BME280;18593;51.426;7.030;2023-05-11T05:38:56;100408.41;;;14.62;76.73
32081;BME280;18593;51.426;7.030;2023-05-11T05:41:24;100416.19;;;14.63;76.98
32081;BME280;18593;51.426;7.030;2023-05-11T05:43:53;100403.59;;;14.64;76.93
32081;BME280;18593;51.426;7.030;2023-05-11T05:46:21;100403.59;;;14.64;76.96
32081;BME280;18593;51.426;7.030;2023-05-11T05:48:48;100401.75;;;14.64;77.09
32081;BME280;18593;51.426;7.030;2023-05-11T05:51:15;100414.13;;;14.65;77.12
32081;BME280;18593;51.426;7.030;2023-05-11T05:53:42;100414.13;;;14.65;77.47
32081;BME280;18593;51.426;7.030;2023-05-11T05:56:10;100421.09;;;14.66;77.46
32081;BME280;18593;51.426;7.030;2023-05-11T05:58:37;100428.91;;;14.68;77.27
32081;BME280;18593;51.426;7.030;2023-05-11T06:01:06;100420.38;;;14.71;77.41
32081;BME280;18593;51.426;7.030;2023-05-11T06:03:34;100427.34;;;14.84;77.42
32081;BME280;18593;51.426;7.030;2023-05-11T06:06:03;100425.06;;;14.92;77.94
32081;BME280;18593;51.426;7.030;2023-05-11T06:08:30;100429.59;;;15.04;78.09
32081;BME280;18593;51.426;7.030;2023-05-11T06:10:57;100436.50;;;15.16;78.48
32081;BME280;18593;51.426;7.030;2023-05-11T06:13:25;100428.16;;;15.30;78.64
32081;BME280;18593;51.426;7.030;2023-05-11T06:15:52;100431.81;;;15.40;78.48
32081;BME280;18593;51.426;7.030;2023-05-11T06:18:31;100430.69;;;15.53;77.87
32081;BME280;18593;51.426;7.030;2023-05-11T06:21:00;100431.09;;;15.62;77.73
32081;BME280;18593;51.426;7.030;2023-05-11T06:23:29;100423.38;;;15.65;77.27
32081;BME280;18593;51.426;7.030;2023-05-11T06:25:57;100435.78;;;15.66;77.00
32081;BME280;18593;51.426;7.030;2023-05-11T06:28:25;100426.88;;;15.66;76.46
32081;BME280;18593;51.426;7.030;2023-05-11T06:30:58;100425.81;;;15.67;76.31
32081;BME280;18593;51.426;7.030;2023-05-11T06:33:27;100429.06;;;15.69;76.12
32081;BME280;18593;51.426;7.030;2023-05-11T06:35:56;100425.47;;;15.80;76.29
32081;BME280;18593;51.426;7.030;2023-05-11T06:38:26;100430.50;;;15.93;75.69
32081;BME280;18593;51.426;7.030;2023-05-11T06:40:54;100420.88;;;15.98;75.36
32081;BME280;18593;51.426;7.030;2023-05-11T06:43:22;100424.63;;;15.96;75.32
32081;BME280;18593;51.426;7.030;2023-05-11T06:45:51;100429.44;;;15.94;74.84
32081;BME280;18593;51.426;7.030;2023-05-11T06:48:19;100432.06;;;15.89;74.00
32081;BME280;18593;51.426;7.030;2023-05-11T06:50:48;100429.88;;;15.86;73.86
32081;BME280;18593;51.426;7.030;2023-05-11T06:53:16;100435.81;;;15.88;73.75
32081;BME280;18593;51.426;7.030;2023-05-11T06:55:44;100432.31;;;15.88;73.76
32081;BME280;18593;51.426;7.030;2023-05-11T06:58:11;100420.75;;;15.87;74.03
32081;BME280;18593;51.426;7.030;2023-05-11T07:00:39;100429.13;;;15.91;73.94
32081;BME280;18593;51.426;7.030;2023-05-11T07:03:06;100423.91;;;16.01;74.33
32081;BME280;18593;51.426;7.030;2023-05-11T07:05:34;100421.28;;;16.06;74.08
32081;BME280;18593;51.426;7.030;2023-05-11T07:08:02;100427.28;;;16.13;74.00
32081;BME280;18593;51.426;7.030;2023-05-11T07:10:31;100428.09;;;16.14;73.96
32081;BME280;18593;51.426;7.030;2023-05-11T07:12:59;100428.09;;;16.14;73.43
32081;BME280;18593;51.426;7.030;2023-05-11T07:15:26;100425.41;;;16.14;72.89
32081;BME280;18593;51.426;7.030;2023-05-11T07:17:53;100423.78;;;16.13;73.14
32081;BME280;18593;51.426;7.030;2023-05-11T07:20:20;100424.25;;;16.10;72.53
32081;BME280;18593;51.426;7.030;2023-05-11T07:22:47;100426.06;;;16.04;72.43
32081;BME280;18593;51.426;7.030;2023-05-11T07:25:15;100430.38;;;16.05;73.00
32081;BME280;18593;51.426;7.030;2023-05-11T07:27:43;100425.25;;;16.04;73.55
32081;BME280;18593;51.426;7.030;2023-05-11T07:30:11;100425.25;;;16.04;73.59
32081;BME280;18593;51.426;7.030;2023-05-11T07:32:38;100425.84;;;16.06;73.79
32081;BME280;18593;51.426;7.030;2023-05-11T07:35:07;100430.97;;;16.07;73.39
32081;BME280;18593;51.426;7.030;2023-05-11T07:37:34;100434.47;;;16.08;73.32
32081;BME280;18593;51.426;7.030;2023-05-11T07:40:02;100440.09;;;16.06;72.53
32081;BME280;18593;51.426;7.030;2023-05-11T07:42:29;100441.41;;;16.04;71.97
32081;BME280;18593;51.426;7.030;2023-05-11T07:44:58;100447.03;;;16.02;72.04
32081;BME280;18593;51.426;7.030;2023-05-11T07:47:25;100445.97;;;16.03;72.06
32081;BME280;18593;51.426;7.030;2023-05-11T07:49:52;100444.09;;;16.04;72.01
32081;BME280;18593;51.426;7.030;2023-05-11T07:52:19;100446.31;;;16.07;71.89
32081;BME280;18593;51.426;7.030;2023-05-11T07:54:46;100437.16;;;16.08;71.63
32081;BME280;18593;51.426;7.030;2023-05-11T07:57:14;100434.72;;;16.06;71.90
32081;BME280;18593;51.426;7.030;2023-05-11T07:59:41;100435.53;;;16.07;72.12
32081;BME280;18593;51.426;7.030;2023-05-11T08:02:09;100428.28;;;16.07;72.41
32081;BME280;18593;51.426;7.030;2023-05-11T08:04:37;100430.72;;;16.09;72.84
32081;BME280;18593;51.426;7.030;2023-05-11T08:07:04;100429.66;;;16.10;73.03
32081;BME280;18593;51.426;7.030;2023-05-11T08:09:31;100437.72;;;16.10;72.69
32081;BME280;18593;51.426;7.030;2023-05-11T08:11:59;100427.75;;;16.10;72.52
32081;BME280;18593;51.426;7.030;2023-05-11T08:14:27;100438.31;;;16.12;72.17
32081;BME280;18593;51.426;7.030;2023-05-11T08:16:54;100439.66;;;16.14;72.18
32081;BME280;18593;51.426;7.030;2023-05-11T08:19:22;100444.00;;;16.15;72.19
32081;BME280;18593;51.426;7.030;2023-05-11T08:21:50;100440.25;;;16.16;72.04
32081;BME280;18593;51.426;7.030;2023-05-11T08:24:17;100448.63;;;16.20;72.43
32081;BME280;18593;51.426;7.030;2023-05-11T08:26:44;100441.69;;;16.24;72.27
32081;BME280;18593;51.426;7.030;2023-05-11T08:29:12;100441.94;;;16.22;72.34
32081;BME280;18593;51.426;7.030;2023-05-11T08:31:39;100444.88;;;16.21;71.72
32081;BME280;18593;51.426;7.030;2023-05-11T08:34:06;100440.63;;;16.25;71.67
32081;BME280;18593;51.426;7.030;2023-05-11T08:36:35;100437.69;;;16.27;72.18
32081;BME280;18593;51.426;7.030;2023-05-11T08:39:03;100439.63;;;16.31;72.12
32081;BME280;18593;51.426;7.030;2023-05-11T08:41:30;100434.56;;;16.35;71.29
32081;BME280;18593;51.426;7.030;2023-05-11T08:43:59;100433.25;;;16.37;70.34
32081;BME280;18593;51.426;7.030;2023-05-11T08:46:29;100436.00;;;16.42;69.88
32081;BME280;18593;51.426;7.030;2023-05-11T08:48:59;100441.69;;;16.46;69.98
32081;BME280;18593;51.426;7.030;2023-05-11T08:51:26;100439.56;;;16.48;68.36
32081;BME280;18593;51.426;7.030;2023-05-11T08:53:55;100440.69;;;16.52;69.35
32081;BME280;18593;51.426;7.030;2023-05-11T08:56:25;100432.41;;;16.59;68.58
32081;BME280;18593;51.426;7.030;2023-05-11T08:58:54;100428.78;;;16.70;68.44
32081;BME280;18593;51.426;7.030;2023-05-11T09:01:22;100436.19;;;16.80;70.28
32081;BME280;18593;51.426;7.030;2023-05-11T09:03:50;100434.09;;;16.87;67.34
32081;BME280;18593;51.426;7.030;2023-05-11T09:06:17;100436.84;;;16.92;68.14
32081;BME280;18593;51.426;7.030;2023-05-11T09:08:45;100434.50;;;17.01;68.75
32081;BME280;18593;51.426;7.030;2023-05-11T09:11:15;100438.59;;;17.03;68.25
32081;BME280;18593;51.426;7.030;2023-05-11T09:13:42;100439.41;;;17.04;68.64
32081;BME280;18593;51.426;7.030;2023-05-11T09:16:09;100439.41;;;17.04;68.58
32081;BME280;18593;51.426;7.030;2023-05-11T09:18:46;100434.25;;;17.02;68.44
32081;BME280;18593;51.426;7.030;2023-05-11T09:21:13;100435.38;;;17.06;69.84
32081;BME280;18593;51.426;7.030;2023-05-11T09:23:40;100444.84;;;17.09;67.45
32081;BME280;18593;51.426;7.030;2023-05-11T09:26:14;100443.78;;;17.10;67.50
32081;BME280;18593;51.426;7.030;2023-05-11T09:28:48;100433.50;;;17.07;65.73
32081;BME280;18593;51.426;7.030;2023-05-11T09:31:35;100428.91;;;17.07;66.62
32081;BME280;18593;51.426;7.030;2023-05-11T09:34:15;100426.47;;;17.06;65.77
32081;BME280;18593;51.426;7.030;2023-05-11T09:36:43;100425.41;;;17.07;67.46
32081;BME280;18593;51.426;7.030;2023-05-11T09:39:11;100421.59;;;17.03;66.79
32081;BME280;18593;51.426;7.030;2023-05-11T09:41:40;100429.94;;;17.01;66.06
32081;BME280;18593;51.426;7.030;2023-05-11T09:44:09;100424.56;;;17.01;64.63
32081;BME280;18593;51.426;7.030;2023-05-11T09:46:37;100422.44;;;17.03;65.31
32081;BME280;18593;51.426;7.030;2023-05-11T09:49:05;100425.97;;;17.09;66.66
32081;BME280;18593;51.426;7.030;2023-05-11T09:51:34;100428.50;;;17.20;69.84
32081;BME280;18593;51.426;7.030;2023-05-11T09:54:16;100427.19;;;17.23;68.03
32081;BME280;18593;51.426;7.030;2023-05-11T09:56:48;100424.19;;;17.19;65.38
32081;BME280;18593;51.426;7.030;2023-05-11T09:59:16;100432.81;;;17.21;66.10
32081;BME280;18593;51.426;7.030;2023-05-11T10:02:16;100427.47;;;17.27;66.89
32081;BME280;18593;51.426;7.030;2023-05-11T10:04:43;100435.31;;;17.28;66.33
32081;BME280;18593;51.426;7.030;2023-05-11T10:07:10;100429.94;;;17.28;66.74
32081;BME280;18593;51.426;7.030;2023-05-11T10:09:49;100430.44;;;17.25;65.81
32081;BME280;18593;51.426;7.030;2023-05-11T10:12:20;100420.50;;;17.31;68.40
32081;BME280;18593;51.426;7.030;2023-05-11T10:14:48;100429.16;;;17.33;67.02
32081;BME280;18593;51.426;7.030;2023-05-11T10:17:18;100431.91;;;17.38;67.10
32081;BME280;18593;51.426;7.030;2023-05-11T10:19:46;100427.59;;;17.42;66.15
32081;BME280;18593;51.426;7.030;2023-05-11T10:22:14;100433.28;;;17.45;65.90
32081;BME280;18593;51.426;7.030;2023-05-11T10:24:42;100431.16;;;17.47;64.79
32081;BME280;18593;51.426;7.030;2023-05-11T10:27:10;100428.50;;;17.53;66.53
32081;BME280;18593;51.426;7.030;2023-05-11T10:29:39;100426.34;;;17.55;65.99
32081;BME280;18593;51.426;7.030;2023-05-11T10:32:10;100425.56;;;17.54;65.54
32081;BME280;18593;51.426;7.030;2023-05-11T10:34:37;100432.28;;;17.57;66.23
32081;BME280;18593;51.426;7.030;2023-05-11T10:37:05;100424.75;;;17.54;64.25
32081;BME280;18593;51.426;7.030;2023-05-11T10:39:36;100430.91;;;17.49;64.94
32081;BME280;18593;51.426;7.030;2023-05-11T10:42:25;100424.94;;;17.47;64.82
32081;BME280;18593;51.426;7.030;2023-05-11T10:45:17;100425.19;;;17.45;65.19
32081;BME280;18593;51.426;7.030;2023-05-11T10:51:42;100431.09;;;17.37;65.14
32081;BME280;18593;51.426;7.030;2023-05-11T10:54:44;100436.19;;;17.34;65.19
32081;BME280;18593;51.426;7.030;2023-05-11T10:57:35;100440.19;;;17.31;65.41
32081;BME280;18593;51.426;7.030;2023-05-11T11:01:08;100432.31;;;17.24;64.75
32081;BME280;18593;51.426;7.030;2023-05-11T11:03:56;100432.28;;;17.19;65.03
32081;BME280;18593;51.426;7.030;2023-05-11T11:06:24;100437.34;;;17.16;65.61
32081;BME280;18593;51.426;7.030;2023-05-11T11:08:56;100431.66;;;17.12;66.38
32081;BME280;18593;51.426;7.030;2023-05-11T11:11:35;100435.69;;;17.10;66.67
32081;BME280;18593;51.426;7.030;2023-05-11T11:14:05;100434.31;;;17.07;66.77
32081;BME280;18593;51.426;7.030;2023-05-11T11:16:36;100430.50;;;17.03;66.40
32081;BME280;18593;51.426;7.030;2023-05-11T11:19:36;100439.34;;;16.98;66.52
32081;BME280;18593;51.426;7.030;2023-05-11T11:22:04;100433.66;;;16.95;66.90
32081;BME280;18593;51.426;7.030;2023-05-11T11:24:47;100436.84;;;16.92;66.49
32081;BME280;18593;51.426;7.030;2023-05-11T11:27:14;100439.50;;;16.87;66.38
32081;BME280;18593;51.426;7.030;2023-05-11T11:30:15;100441.06;;;16.83;67.06
32081;BME280;18593;51.426;7.030;2023-05-11T11:32:44;100440.50;;;16.81;67.32
32081;BME280;18593;51.426;7.030;2023-05-11T11:35:46;100448.00;;;16.79;67.38
32081;BME280;18593;51.426;7.030;2023-05-11T11:38:16;100435.06;;;16.76;67.51
32081;BME280;18593;51.426;7.030;2023-05-11T11:40:45;100435.34;;;16.74;67.96
32081;BME280;18593;51.426;7.030;2023-05-11T11:43:16;100439.31;;;16.71;67.72
32081;BME280;18593;51.426;7.030;2023-05-11T11:45:52;100425.88;;;16.71;69.10
32081;BME280;18593;51.426;7.030;2023-05-11T11:48:29;100428.56;;;16.71;68.92
32081;BME280;18593;51.426;7.030;2023-05-11T11:51:05;100427.47;;;16.72;69.04
32081;BME280;18593;51.426;7.030;2023-05-11T11:54:03;100430.75;;;16.75;68.76
32081;BME280;18593;51.426;7.030;2023-05-11T11:56:42;100428.88;;;16.75;68.71
32081;BME280;18593;51.426;7.030;2023-05-11T11:59:13;100438.56;;;16.76;68.62
32081;BME280;18593;51.426;7.030;2023-05-11T12:01:43;100434.81;;;16.77;67.82
32081;BME280;18593;51.426;7.030;2023-05-11T12:04:49;100438.31;;;16.78;67.99
32081;BME280;18593;51.426;7.030;2023-05-11T12:07:19;100431.03;;;16.78;67.78
32081;BME280;18593;51.426;7.030;2023-05-11T12:09:47;100422.97;;;16.78;66.98
32081;BME280;18593;51.426;7.030;2023-05-11T12:12:17;100429.72;;;16.81;67.66
32081;BME280;18593;51.426;7.030;2023-05-11T12:14:46;100427.03;;;16.81;68.05
32081;BME280;18593;51.426;7.030;2023-05-11T12:17:24;100424.66;;;16.84;67.59
32081;BME280;18593;51.426;7.030;2023-05-11T12:19:54;100426.03;;;16.87;67.68
32081;BME280;18593;51.426;7.030;2023-05-11T12:22:36;100425.75;;;16.88;67.41
32081;BME280;18593;51.426;7.030;2023-05-11T12:25:05;100427.69;;;16.93;67.84
32081;BME280;18593;51.426;7.030;2023-05-11T12:27:33;100427.16;;;16.91;68.37
32081;BME280;18593;51.426;7.030;2023-05-11T12:30:00;100423.16;;;16.93;68.52
32081;BME280;18593;51.426;7.030;2023-05-11T12:32:29;100418.84;;;16.97;68.27
32081;BME280;18593;51.426;7.030;2023-05-11T12:35:00;100417.28;;;17.02;68.42
32081;BME280;18593;51.426;7.030;2023-05-11T12:37:28;100414.09;;;17.05;68.30
32081;BME280;18593;51.426;7.030;2023-05-11T12:39:57;100414.91;;;17.05;68.46
32081;BME280;18593;51.426;7.030;2023-05-11T12:42:25;100409.00;;;17.08;68.61
32081;BME280;18593;51.426;7.030;2023-05-11T12:44:53;100404.66;;;17.07;68.47
32081;BME280;18593;51.426;7.030;2023-05-11T12:47:21;100396.88;;;17.11;69.68
32081;BME280;18593;51.426;7.030;2023-05-11T12:49:49;100393.97;;;17.17;68.84
32081;BME280;18593;51.426;7.030;2023-05-11T12:52:18;100394.53;;;17.19;68.32
32081;BME280;18593;51.426;7.030;2023-05-11T12:54:48;100398.59;;;17.22;67.05
32081;BME280;18593;51.426;7.030;2023-05-11T12:57:24;100398.09;;;17.25;66.67
32081;BME280;18593;51.426;7.030;2023-05-11T13:00:09;100394.88;;;17.28;66.25
32081;BME280;18593;51.426;7.030;2023-05-11T13:02:47;100388.97;;;17.31;66.46
32081;BME280;18593;51.426;7.030;2023-05-11T13:05:16;100391.13;;;17.29;66.94
32081;BME280;18593;51.426;7.030;2023-05-11T13:07:46;100387.88;;;17.32;66.90
32081;BME280;18593;51.426;7.030;2023-05-11T13:10:13;100388.19;;;17.36;66.50
32081;BME280;18593;51.426;7.030;2023-05-11T13:12:47;100385.25;;;17.37;65.84